Terminal Aerodrome Forecast
Issued by NWS

Home | Current Version | Previous Version | Text Only | Print | Product List | Glossary On
Versions: 1 2 3 4 5 6 7 8 9 10 11 12 13 14 15 16 17 18 19 20 21 22 23 24 25
000
FTUS43 KDLH 171237 AAA
TAFHIB
TAF AMD
KHIB 171237Z 1713/1812 05008KT 4SM RA BR SCT008 BKN035
      TEMPO 1713/1715 1 1/2SM RA BR BKN008 OVC015
     FM171500 01009KT 3SM -RA BR OVC008
     FM171900 35010KT 4SM -RA BR OVC008
     FM172200 34010KT 6SM -SHRA BR OVC015
     FM180100 33008KT P6SM OVC015
     FM180500 32005KT P6SM BKN025=

USA.gov is the U.S. government's official web portal to all federal, state and local government web resources and services.